Terminal Aerodrome Forecast
Issued by NWS Cleveland, OH

Home | Current Version | Previous Version | Graphics & Text | Print | Product List | Glossary On
Versions: 1 2 3 4 5 6 7 8 9 10 11 12 13 14 15 16 17
000
FTUS41 KCLE 171700
TAFMFD
TAF
KMFD 171720Z 1718/1818 27006KT P6SM OVC015
     FM171900 31004KT 6SM HZ SCT015
     FM180000 VRB03KT P6SM SKC
     FM180800 VRB03KT 4SM BR SKC
     FM181400 35006KT P6SM SKC=

USA.gov is the U.S. government's official web portal to all federal, state and local government web resources and services.